Delray Beach, FL

3:06 PM EDT on March 28, 2015 (GMT -0400)
Delray Beach | | Change Station
CLOSE
Current Station
Personal Weather Station
Location: Delray Beach, FL
Elevation: 30 ft
Nearby Weather Stations

Elev 30 ft 26.47 °N, 80.09 °W | Updated 1 second ago

Partly Cloudy
Partly Cloudy
71.8 °F
Feels Like 71.8 °F
N
7.3
Wind Variable Wind from West
Gusts 9.9 mph

Today
High -- | Low -- °F
--% Chance of Precip.
Yesterday
High -- | Low -- °F
Precip. -- in
7:15 AM 7:35 PM
Waxing Gibbous, 64% visible
Pressure 30.14 in
Visibility 10.0 miles
Clouds Clear
Dew Point 68 °F
Humidity 89%
Rainfall in
Snow Depth Not available.
UV 12 out of 12
Pollen 9.40 out of 12
Air Quality Not available.
Flu Activity Not available.
METAR KPMP 281853Z 32014G21KT 10SM CLR 21/06 A3013 RMK AO2 SLP204 T02110061

More Conditions Fewer Conditions

Pressure 30.14 in
Visibility 10.0 miles
Clouds Clear
Dew Point 68 °F
Humidity 89%
Rainfall in
Snow Depth Not available.
UV 12 out of 12
Pollen 9.40 out of 12
Air Quality Not available.
Flu Activity Not available.
METAR KPMP 281853Z 32014G21KT 10SM CLR 21/06 A3013 RMK AO2 SLP204 T02110061

More Conditions Fewer Conditions

10-Day Weather Forecast

Almanac

Astronomy

Mar. 28, 2015 Rise Set
Actual Time
Civil Twilight
Nautical Twilight
Astronomical Twilight
Moon
Length of Visible Light
Length of Day
Tomorrow will be .
, % of the Moon is Illuminated

Today's Extremes

State Highs State Lows

Community

WunderPhotos

Upload Photos

1,809,069 photos uploaded!

WunderBlogs® & News

Nearby

Air Quality

  Air Quality AQ Index Pollutant
Not available.

Snow Depth

Station Depth Elevation

Earthquake Activity

City Distance Mag. Time & Date
Minimum magnitude displayed is 2.5.

Coastal Water Temperatures

Place Temperature

Stations

Nearby Weather Stations

Station Location Temp. Windchill Dew Point Humidity Wind Precip. Elev Updated Type